Time;durP1;ratioP1;P1;durP2;ratioP2;P2;SDS_P1;SDS_P2;PMS_P1;PMS_P2;Temp;Humidity;BMP_temperature;BMP_pressure;BME280_temperature;BME280_humidity;BME280_pressure;Samples;Min_cycle;Max_cycle;Signal;HPM_P1;HPM_P2
2023/04/25 00:02:03;;;;;;;33.22;12.15;;;20.40;73.20;;;;;;5013298;28;20061;-86
2023/04/25 00:04:29;;;;;;;28.38;10.90;;;20.40;73.20;;;;;;5018699;28;20065;-86
2023/04/25 00:06:55;;;;;;;25.30;11.27;;;20.40;73.20;;;;;;5030820;28;20076;-85
2023/04/25 00:09:21;;;;;;;20.83;10.48;;;20.30;73.20;;;;;;5016029;28;20029;-85
2023/04/25 00:11:47;;;;;;;30.73;11.05;;;20.40;73.20;;;;;;5024104;28;20367;-85
2023/04/25 00:14:13;;;;;;;26.05;11.38;;;20.40;73.20;;;;;;5024555;28;20022;-86
2023/04/25 00:16:38;;;;;;;29.55;11.88;;;20.30;73.20;;;;;;5020009;28;20018;-86
2023/04/25 00:19:04;;;;;;;32.25;10.02;;;20.30;73.20;;;;;;5021901;28;20022;-86
2023/04/25 00:21:31;;;;;;;29.08;10.45;;;20.30;73.20;;;;;;5020893;28;20021;-85
2023/04/25 00:23:57;;;;;;;29.40;10.68;;;20.30;73.20;;;;;;5019072;28;20034;-85
2023/04/25 00:26:22;;;;;;;27.83;10.75;;;20.30;73.20;;;;;;5022116;28;20017;-85
2023/04/25 00:28:48;;;;;;;20.60;9.55;;;20.30;73.20;;;;;;5018559;28;20022;-85
2023/04/25 00:31:14;;;;;;;23.52;10.57;;;20.30;73.20;;;;;;5018782;28;20037;-86
2023/04/25 00:33:40;;;;;;;20.02;9.57;;;20.30;73.20;;;;;;5021971;28;20028;-85
2023/04/25 00:36:06;;;;;;;20.27;9.88;;;20.30;73.20;;;;;;5024104;28;20028;-85
2023/04/25 00:38:32;;;;;;;21.10;10.77;;;20.30;73.20;;;;;;5019704;28;20054;-85
2023/04/25 00:40:57;;;;;;;23.08;9.15;;;20.30;73.20;;;;;;5018535;28;20546;-85
2023/04/25 00:43:25;;;;;;;27.90;10.75;;;20.30;74.00;;;;;;5022098;28;20024;-85
2023/04/25 00:45:52;;;;;;;22.15;9.13;;;20.30;73.30;;;;;;5021798;28;20028;-86
2023/04/25 00:48:18;;;;;;;21.17;9.88;;;20.30;73.20;;;;;;5019324;28;20105;-85
2023/04/25 00:50:54;;;;;;;23.95;9.82;;;20.30;73.20;;;;;;5017665;28;20022;-85
2023/04/25 00:53:24;;;;;;;21.25;9.00;;;20.30;73.30;;;;;;5009416;28;20480;-85
2023/04/25 00:55:50;;;;;;;18.83;8.70;;;20.20;73.20;;;;;;5013329;28;20018;-85
2023/04/25 00:58:17;;;;;;;21.65;9.25;;;20.30;73.30;;;;;;5013220;28;20454;-85
2023/04/25 01:00:45;;;;;;;20.45;8.88;;;20.20;73.30;;;;;;5016043;28;20387;-85
2023/04/25 01:03:11;;;;;;;21.10;9.25;;;20.20;73.30;;;;;;5021159;28;20017;-85
2023/04/25 01:05:37;;;;;;;16.85;8.07;;;20.20;73.30;;;;;;5016417;28;20068;-85
2023/04/25 01:08:03;;;;;;;23.52;9.40;;;20.20;73.30;;;;;;5024518;28;20022;-85
2023/04/25 01:10:28;;;;;;;21.58;8.75;;;20.20;73.30;;;;;;5020443;28;20017;-85
2023/04/25 01:12:54;;;;;;;17.95;8.50;;;20.20;73.30;;;;;;5022631;28;20040;-85
2023/04/25 01:15:20;;;;;;;20.33;9.30;;;20.20;73.30;;;;;;5018560;28;20025;-86
2023/04/25 01:17:46;;;;;;;26.48;9.23;;;20.20;73.40;;;;;;5014600;28;20072;-85
2023/04/25 01:20:13;;;;;;;20.13;8.70;;;20.20;73.40;;;;;;5019558;28;20080;-85
2023/04/25 01:22:39;;;;;;;16.65;8.13;;;20.20;73.40;;;;;;5018463;28;20033;-85
2023/04/25 01:25:06;;;;;;;15.88;7.78;;;20.20;73.40;;;;;;5021226;28;20386;-85
2023/04/25 01:27:32;;;;;;;18.55;8.05;;;20.20;73.40;;;;;;5020515;28;20025;-85
2023/04/25 01:29:58;;;;;;;23.45;8.57;;;20.20;73.40;;;;;;5012652;28;20029;-84
2023/04/25 01:32:23;;;;;;;17.90;8.55;;;20.20;73.40;;;;;;5017428;28;20478;-85
2023/04/25 01:34:49;;;;;;;16.23;7.78;;;20.20;73.40;;;;;;5023734;28;20032;-85
2023/04/25 01:37:16;;;;;;;15.52;7.50;;;20.20;73.40;;;;;;5015953;28;20048;-85
2023/04/25 01:39:42;;;;;;;17.08;8.23;;;20.20;73.40;;;;;;5013266;28;20025;-86
2023/04/25 01:42:07;;;;;;;16.52;7.72;;;20.20;73.40;;;;;;5011640;28;20032;-85
2023/04/25 01:44:33;;;;;;;19.10;7.70;;;20.20;73.50;;;;;;5012291;28;20040;-85
2023/04/25 01:46:58;;;;;;;17.45;7.80;;;20.20;73.50;;;;;;5011425;28;20045;-86
2023/04/25 01:49:24;;;;;;;16.52;7.20;;;20.20;73.50;;;;;;5011722;28;20101;-85
2023/04/25 01:51:50;;;;;;;19.85;8.45;;;20.20;73.50;;;;;;5017910;28;20026;-85
2023/04/25 01:54:16;;;;;;;15.85;7.63;;;20.20;73.60;;;;;;5015082;28;20083;-85
2023/04/25 01:56:42;;;;;;;18.30;7.60;;;20.20;73.50;;;;;;5021234;28;20067;-85
2023/04/25 01:59:08;;;;;;;20.52;7.20;;;20.20;73.50;;;;;;5013079;28;20461;-85
2023/04/25 02:01:34;;;;;;;18.13;7.30;;;20.10;73.50;;;;;;5017979;28;20018;-85
2023/04/25 02:03:59;;;;;;;14.55;7.00;;;20.10;73.50;;;;;;5018203;28;20029;-85
2023/04/25 02:06:25;;;;;;;17.73;7.05;;;20.10;73.50;;;;;;5015624;28;20113;-86
2023/04/25 02:08:50;;;;;;;16.92;7.13;;;20.10;73.50;;;;;;5019507;28;20054;-85
2023/04/25 02:11:16;;;;;;;16.45;7.18;;;20.10;73.50;;;;;;5016951;28;20396;-85
2023/04/25 02:13:41;;;;;;;12.13;6.18;;;20.10;73.50;;;;;;5020744;28;20032;-85
2023/04/25 02:16:07;;;;;;;13.48;6.82;;;20.10;73.50;;;;;;5018138;28;20053;-85
2023/04/25 02:18:33;;;;;;;13.80;6.28;;;20.10;73.50;;;;;;5021498;28;20025;-85
2023/04/25 02:21:01;;;;;;;19.35;6.43;;;20.10;73.50;;;;;;5016051;28;20034;-85
2023/04/25 02:23:26;;;;;;;11.57;6.03;;;20.10;73.50;;;;;;5015498;28;20025;-85
2023/04/25 02:25:52;;;;;;;13.27;6.82;;;20.10;73.50;;;;;;5015814;28;20022;-85
2023/04/25 02:28:18;;;;;;;18.17;7.50;;;20.10;73.50;;;;;;5018035;28;20018;-86
2023/04/25 02:30:43;;;;;;;10.43;6.05;;;20.10;73.60;;;;;;5011762;28;20402;-85
2023/04/25 02:33:09;;;;;;;14.18;6.60;;;20.10;73.60;;;;;;5016304;28;20407;-85
2023/04/25 02:35:35;;;;;;;13.93;6.65;;;20.10;73.60;;;;;;5014692;28;20025;-85
2023/04/25 02:38:00;;;;;;;13.85;6.57;;;20.10;73.60;;;;;;5017897;28;20474;-85
2023/04/25 02:40:26;;;;;;;13.32;6.30;;;20.10;73.60;;;;;;5014185;28;20018;-85
2023/04/25 02:42:51;;;;;;;16.10;5.93;;;20.10;74.30;;;;;;5012348;28;20036;-85
2023/04/25 02:45:17;;;;;;;14.13;6.20;;;20.10;73.60;;;;;;5007375;28;20116;-85
2023/04/25 02:47:42;;;;;;;14.40;6.50;;;20.00;73.50;;;;;;5019893;28;20483;-85
2023/04/25 02:50:08;;;;;;;13.65;6.47;;;20.10;73.60;;;;;;5016639;28;20446;-85
2023/04/25 02:52:34;;;;;;;12.73;6.40;;;20.10;74.30;;;;;;5021432;28;20021;-85
2023/04/25 02:54:59;;;;;;;15.27;6.07;;;20.10;73.60;;;;;;5017722;28;20024;-85
2023/04/25 02:57:25;;;;;;;14.35;6.00;;;20.10;73.60;;;;;;5017509;28;20021;-86
2023/04/25 02:59:50;;;;;;;14.70;6.03;;;20.00;73.50;;;;;;5019107;28;20151;-85
2023/04/25 03:02:16;;;;;;;11.85;6.45;;;20.00;73.60;;;;;;5014422;28;20073;-85
2023/04/25 03:04:41;;;;;;;11.02;5.43;;;20.00;73.60;;;;;;5016364;28;20037;-85
2023/04/25 03:07:08;;;;;;;14.98;5.60;;;20.00;73.60;;;;;;5017399;28;20029;-85
2023/04/25 03:09:33;;;;;;;11.02;5.35;;;20.00;73.60;;;;;;5015030;28;20100;-85
2023/04/25 03:11:59;;;;;;;9.98;5.25;;;20.00;73.60;;;;;;5017469;28;20100;-85
2023/04/25 03:14:24;;;;;;;11.95;5.43;;;20.00;73.60;;;;;;5014662;28;20479;-85
2023/04/25 03:16:50;;;;;;;9.77;5.53;;;20.00;73.60;;;;;;5015627;28;20072;-85
2023/04/25 03:19:16;;;;;;;8.63;5.20;;;20.00;73.60;;;;;;5017785;28;20080;-85
2023/04/25 03:21:42;;;;;;;12.57;5.93;;;20.00;73.70;;;;;;5016694;28;20018;-85
2023/04/25 03:24:08;;;;;;;8.43;4.93;;;20.00;73.60;;;;;;5015550;28;20502;-85
2023/04/25 03:26:34;;;;;;;11.10;5.20;;;20.00;73.60;;;;;;5006870;28;20053;-85
2023/04/25 03:28:59;;;;;;;14.25;4.88;;;20.00;73.60;;;;;;5012557;28;20289;-85
2023/04/25 03:31:25;;;;;;;13.27;5.93;;;20.00;73.70;;;;;;5012189;28;20018;-85
2023/04/25 03:33:50;;;;;;;9.23;5.25;;;20.00;73.70;;;;;;5008682;28;20022;-85
2023/04/25 03:36:16;;;;;;;11.52;5.18;;;20.00;73.60;;;;;;5012246;28;20467;-85
2023/04/25 03:38:41;;;;;;;13.10;5.43;;;20.00;73.70;;;;;;5011683;28;20033;-86
2023/04/25 03:41:07;;;;;;;12.18;5.22;;;20.00;73.70;;;;;;5013813;28;20026;-86
2023/04/25 03:43:33;;;;;;;10.40;5.70;;;20.00;73.70;;;;;;5019883;28;20022;-86
2023/04/25 03:45:59;;;;;;;12.57;5.43;;;20.00;73.70;;;;;;5016749;28;20034;-85
2023/04/25 03:48:26;;;;;;;10.93;4.78;;;20.00;73.70;;;;;;5022039;28;20026;-86
2023/04/25 03:50:52;;;;;;;9.52;4.38;;;20.10;73.90;;;;;;5022620;28;20028;-86
2023/04/25 03:53:18;;;;;;;8.52;4.45;;;20.10;73.90;;;;;;5023604;28;20021;-85
2023/04/25 03:55:44;;;;;;;12.20;4.40;;;20.10;73.90;;;;;;5023830;28;20022;-85
2023/04/25 03:58:09;;;;;;;11.95;5.15;;;20.10;73.90;;;;;;5017953;28;20022;-84
2023/04/25 04:00:35;;;;;;;12.07;5.00;;;20.10;74.00;;;;;;5020296;28;20021;-85
2023/04/25 04:03:01;;;;;;;10.32;4.40;;;20.20;74.00;;;;;;5021730;28;20049;-85
2023/04/25 04:05:27;;;;;;;14.30;5.25;;;20.10;74.00;;;;;;5023421;28;20046;-85
2023/04/25 04:07:53;;;;;;;8.75;4.47;;;20.20;74.10;;;;;;5019543;28;20030;-83
2023/04/25 04:10:18;;;;;;;10.80;5.07;;;20.20;74.10;;;;;;5020974;28;20021;-83
2023/04/25 04:12:44;;;;;;;10.30;4.22;;;20.20;74.20;;;;;;5017229;28;20028;-83
2023/04/25 04:15:10;;;;;;;7.20;3.70;;;20.30;74.20;;;;;;5023724;28;20021;-82
2023/04/25 04:17:36;;;;;;;9.93;4.22;;;20.20;74.10;;;;;;5018422;28;20033;-80
2023/04/25 04:20:03;;;;;;;21.80;5.28;;;20.30;74.20;;;;;;5016950;28;20022;-81
2023/04/25 04:22:29;;;;;;;25.75;4.72;;;20.30;74.60;;;;;;5017147;28;20053;-81
2023/04/25 04:24:56;;;;;;;25.88;4.82;;;20.30;74.80;;;;;;5010257;28;20033;-81
2023/04/25 04:27:22;;;;;;;28.17;4.50;;;20.40;74.80;;;;;;5019242;28;20025;-81
2023/04/25 04:29:48;;;;;;;21.33;4.18;;;20.40;74.70;;;;;;5013639;28;20434;-81
2023/04/25 04:32:15;;;;;;;17.90;4.28;;;20.40;74.60;;;;;;5021729;28;20141;-81
2023/04/25 04:34:41;;;;;;;19.88;4.68;;;20.40;74.60;;;;;;5020400;28;20026;-81
2023/04/25 04:37:07;;;;;;;29.52;4.10;;;20.40;74.50;;;;;;5021515;28;20030;-82
2023/04/25 04:39:36;;;;;;;13.05;4.53;;;20.40;74.40;;;;;;5019031;28;20053;-81
2023/04/25 04:42:03;;;;;;;11.25;3.58;;;20.40;74.40;;;;;;5023752;28;20449;-82
2023/04/25 04:44:29;;;;;;;14.40;3.00;;;20.50;74.40;;;;;;5020501;28;20029;-82
2023/04/25 04:46:54;;;;;;;18.08;3.20;;;20.50;74.30;;;;;;5025361;28;20037;-81
2023/04/25 04:49:21;;;;;;;14.75;3.78;;;20.50;74.30;;;;;;5019562;28;20030;-80
2023/04/25 04:51:47;;;;;;;17.30;3.90;;;20.50;74.20;;;;;;5022520;28;20054;-83
2023/04/25 04:54:13;;;;;;;10.35;3.60;;;20.50;74.20;;;;;;5017519;28;20029;-82
2023/04/25 04:56:39;;;;;;;9.32;3.28;;;20.50;74.10;;;;;;5020776;28;20022;-80
2023/04/25 04:59:04;;;;;;;14.07;2.60;;;20.50;74.10;;;;;;5022182;28;20371;-81
2023/04/25 05:01:30;;;;;;;8.20;3.40;;;20.50;74.00;;;;;;5018378;28;20022;-80
2023/04/25 05:04:00;;;;;;;3.65;2.55;;;20.60;74.80;;;;;;5023906;28;20033;-80
2023/04/25 05:06:29;;;;;;;6.75;2.90;;;20.60;74.00;;;;;;5018629;28;20017;-80
2023/04/25 05:08:55;;;;;;;13.18;3.38;;;20.60;74.00;;;;;;5020487;28;20136;-80
2023/04/25 05:11:22;;;;;;;13.25;3.42;;;20.60;73.90;;;;;;5012933;28;20022;-80
2023/04/25 05:13:47;;;;;;;9.13;3.92;;;20.60;74.00;;;;;;5004927;28;20017;-85
2023/04/25 05:16:13;;;;;;;4.97;2.80;;;20.60;74.30;;;;;;5018678;28;20056;-85
2023/04/25 05:18:39;;;;;;;18.58;4.07;;;20.70;74.00;;;;;;5014177;28;20093;-81
2023/04/25 05:21:05;;;;;;;17.83;3.65;;;20.70;73.90;;;;;;5022078;28;20026;-82
2023/04/25 05:23:32;;;;;;;24.77;3.22;;;20.80;74.20;;;;;;5002790;28;20064;-82
2023/04/25 05:25:58;;;;;;;10.00;3.35;;;20.90;74.10;;;;;;5003244;28;20063;-80
2023/04/25 05:28:23;;;;;;;9.00;3.00;;;20.90;73.70;;;;;;5017158;28;20029;-85
2023/04/25 05:30:49;;;;;;;11.35;3.00;;;21.00;73.60;;;;;;5006687;28;20567;-82
2023/04/25 05:33:15;;;;;;;43.88;3.72;;;21.00;73.40;;;;;;5007655;28;20029;-83
2023/04/25 05:35:41;;;;;;;14.55;2.60;;;21.10;73.60;;;;;;5009443;28;20026;-80
2023/04/25 05:38:06;;;;;;;9.38;3.40;;;21.10;73.60;;;;;;5014881;28;20064;-82
2023/04/25 05:40:32;;;;;;;10.88;3.30;;;21.20;75.20;;;;;;5016959;28;20044;-80
2023/04/25 05:42:57;;;;;;;10.82;3.17;;;21.20;73.30;;;;;;5024824;28;20034;-82
2023/04/25 05:45:23;;;;;;;15.05;2.72;;;21.30;73.00;;;;;;5020610;28;20026;-81
2023/04/25 05:47:48;;;;;;;6.65;2.60;;;21.40;72.80;;;;;;5006412;28;20042;-84
2023/04/25 05:50:14;;;;;;;26.00;3.17;;;21.40;72.60;;;;;;5012519;28;20379;-86
2023/04/25 05:52:40;;;;;;;4.68;2.70;;;21.40;72.30;;;;;;5014726;28;20032;-85
2023/04/25 05:55:06;;;;;;;9.90;3.17;;;21.40;72.10;;;;;;5018340;28;20565;-86
2023/04/25 05:57:31;;;;;;;8.23;2.33;;;21.40;72.10;;;;;;5011986;28;20022;-83
2023/04/25 05:59:57;;;;;;;15.48;3.03;;;21.40;72.00;;;;;;5007463;28;20510;-83
2023/04/25 06:02:22;;;;;;;15.05;3.67;;;21.40;72.00;;;;;;5016600;28;20029;-83
2023/04/25 06:04:50;;;;;;;10.85;3.63;;;21.50;72.00;;;;;;5016321;28;20021;-87
2023/04/25 06:07:15;;;;;;;6.72;2.40;;;21.50;71.80;;;;;;5012064;28;20033;-85
2023/04/25 06:09:41;;;;;;;5.65;2.53;;;21.50;71.80;;;;;;5012638;28;20025;-87
2023/04/25 06:12:07;;;;;;;13.20;3.38;;;21.50;71.80;;;;;;5009085;28;20029;-87
2023/04/25 06:14:33;;;;;;;9.35;2.60;;;21.50;72.40;;;;;;5006722;28;20018;-86
2023/04/25 06:16:59;;;;;;;7.03;2.20;;;21.60;71.70;;;;;;5016923;28;20037;-85
2023/04/25 06:19:25;;;;;;;10.63;2.30;;;21.60;71.60;;;;;;5019282;28;20040;-83
2023/04/25 06:21:50;;;;;;;3.80;2.40;;;21.70;71.50;;;;;;5021168;28;20028;-83
2023/04/25 06:24:16;;;;;;;8.80;2.67;;;21.70;71.10;;;;;;5013482;28;20025;-81
2023/04/25 06:26:41;;;;;;;9.13;2.60;;;21.80;70.90;;;;;;5011101;28;20089;-82
2023/04/25 06:29:07;;;;;;;15.65;2.85;;;21.80;70.80;;;;;;5013707;28;20072;-81
2023/04/25 06:31:33;;;;;;;5.30;2.55;;;21.90;70.70;;;;;;5019232;28;20049;-81
2023/04/25 06:33:59;;;;;;;10.00;2.15;;;21.90;70.50;;;;;;5020051;28;20013;-81
2023/04/25 06:36:27;;;;;;;7.68;2.28;;;21.90;70.60;;;;;;5020285;28;20027;-84
2023/04/25 06:38:54;;;;;;;8.35;2.25;;;22.00;70.40;;;;;;5019567;28;20033;-84
2023/04/25 06:41:20;;;;;;;6.55;2.15;;;22.00;70.30;;;;;;5018333;28;20022;-82
2023/04/25 06:43:45;;;;;;;3.67;1.90;;;22.00;70.60;;;;;;5020286;28;20386;-83
2023/04/25 06:46:11;;;;;;;4.75;2.40;;;22.00;70.40;;;;;;5019616;28;20028;-84
2023/04/25 06:48:37;;;;;;;6.65;2.30;;;22.00;70.40;;;;;;5019570;28;20029;-83
2023/04/25 06:51:02;;;;;;;5.50;2.15;;;22.00;70.40;;;;;;5018737;28;20018;-83
2023/04/25 06:53:28;;;;;;;8.70;2.55;;;22.10;70.50;;;;;;5011070;28;20034;-80
2023/04/25 06:55:54;;;;;;;9.30;1.83;;;22.10;70.20;;;;;;5018057;28;20629;-82
2023/04/25 06:58:20;;;;;;;9.85;2.53;;;22.20;70.20;;;;;;5012339;28;20708;-86
2023/04/25 07:00:45;;;;;;;3.55;1.70;;;22.20;70.30;;;;;;5015923;28;20124;-84
2023/04/25 07:03:11;;;;;;;12.38;2.25;;;22.20;70.30;;;;;;5021536;28;20211;-92
2023/04/25 07:05:37;;;;;;;8.32;2.55;;;22.20;70.00;;;;;;5020216;28;20079;-89
2023/04/25 07:08:03;;;;;;;6.63;2.10;;;22.20;69.90;;;;;;5007351;28;20034;-88
2023/04/25 07:10:28;;;;;;;12.38;2.50;;;22.20;70.00;;;;;;5008583;28;20556;-91
2023/04/25 07:12:54;;;;;;;9.55;1.90;;;22.10;69.90;;;;;;5001985;28;20022;-89
2023/04/25 07:15:20;;;;;;;7.05;2.22;;;22.10;70.10;;;;;;5016148;28;20093;-88
2023/04/25 07:17:45;;;;;;;6.28;2.03;;;22.10;70.10;;;;;;5019767;28;20045;-89
2023/04/25 07:20:11;;;;;;;3.58;1.80;;;22.10;70.20;;;;;;5010032;28;20076;-90
2023/04/25 07:22:37;;;;;;;18.45;2.10;;;22.00;70.20;;;;;;5009312;28;20033;-92
2023/04/25 07:25:04;;;;;;;4.47;1.65;;;22.00;70.10;;;;;;5012236;28;20038;-90
2023/04/25 07:27:30;;;;;;;5.75;1.90;;;22.00;70.00;;;;;;5009038;28;20101;-89
2023/04/25 07:29:55;;;;;;;10.02;2.15;;;22.00;70.00;;;;;;5014246;28;20053;-89
2023/04/25 07:32:21;;;;;;;4.85;1.73;;;22.00;69.90;;;;;;5013969;28;20530;-88
2023/04/25 07:34:46;;;;;;;6.85;1.92;;;22.00;69.40;;;;;;5016745;28;20036;-84
2023/04/25 07:37:13;;;;;;;6.05;1.50;;;22.00;66.00;;;;;;5018927;28;20037;-84
2023/04/25 07:39:39;;;;;;;10.82;2.00;;;22.00;66.10;;;;;;5013386;28;20017;-86
2023/04/25 07:42:07;;;;;;;8.18;1.80;;;21.90;66.40;;;;;;5018250;28;20030;-85
2023/04/25 07:44:38;;;;;;;5.10;1.80;;;22.00;66.70;;;;;;5015734;28;20132;-84
2023/04/25 07:47:07;;;;;;;7.05;1.80;;;22.00;67.00;;;;;;5024478;28;20025;-84
2023/04/25 07:49:34;;;;;;;5.05;1.63;;;22.00;67.50;;;;;;5002333;28;20048;-85
2023/04/25 07:52:00;;;;;;;2.25;1.40;;;21.90;67.50;;;;;;5014698;28;20022;-88
2023/04/25 07:54:26;;;;;;;3.30;1.90;;;22.00;67.70;;;;;;5010247;28;20026;-88
2023/04/25 07:56:51;;;;;;;6.43;1.73;;;22.00;67.80;;;;;;5012721;28;20022;-85
2023/04/25 07:59:17;;;;;;;1.30;1.15;;;22.00;67.80;;;;;;5009405;28;20061;-86
2023/04/25 08:01:42;;;;;;;12.35;1.35;;;22.00;67.90;;;;;;5010078;28;20026;-87
2023/04/25 08:04:08;;;;;;;12.93;1.65;;;22.00;68.00;;;;;;5013953;28;20033;-86
2023/04/25 08:06:34;;;;;;;5.05;1.60;;;22.00;67.90;;;;;;5027438;28;20022;-84
2023/04/25 08:08:59;;;;;;;3.75;1.40;;;22.00;68.10;;;;;;5002967;28;20035;-85
2023/04/25 08:11:25;;;;;;;2.20;1.67;;;22.00;68.20;;;;;;5019815;28;20017;-84
2023/04/25 08:13:50;;;;;;;3.72;1.50;;;22.00;68.20;;;;;;5012373;28;20049;-84
2023/04/25 08:16:16;;;;;;;7.32;1.60;;;22.00;68.20;;;;;;5020004;28;20061;-87
2023/04/25 08:18:41;;;;;;;3.55;1.50;;;22.00;68.30;;;;;;5014504;28;20022;-88
2023/04/25 08:21:08;;;;;;;13.73;1.67;;;22.00;68.30;;;;;;5020461;28;20030;-89
2023/04/25 08:23:34;;;;;;;8.05;1.75;;;22.00;68.50;;;;;;5011815;28;20025;-85
2023/04/25 08:26:00;;;;;;;9.02;1.70;;;22.00;68.60;;;;;;5015192;28;20394;-84
2023/04/25 08:28:25;;;;;;;3.45;1.52;;;22.00;68.50;;;;;;5017581;28;20391;-86
2023/04/25 08:30:51;;;;;;;4.90;1.85;;;22.00;68.50;;;;;;5019587;28;20014;-86
2023/04/25 08:33:16;;;;;;;5.55;1.65;;;22.10;68.50;;;;;;5017783;28;20026;-85
2023/04/25 08:35:42;;;;;;;3.15;1.50;;;22.10;68.50;;;;;;5020288;28;20093;-85
2023/04/25 08:38:08;;;;;;;6.38;1.42;;;22.10;68.40;;;;;;5021311;28;20030;-86
2023/04/25 08:40:38;;;;;;;2.13;1.27;;;22.10;68.30;;;;;;5019196;28;20060;-86
2023/04/25 08:43:09;;;;;;;;;;;22.00;68.30;;;;;;5019182;28;20113;-86
2023/04/25 08:45:35;;;;;;;26.65;1.80;;;22.10;68.10;;;;;;5021935;28;19934;-84
2023/04/25 08:48:03;;;;;;;121.70;5.13;;;22.10;67.80;;;;;;5021511;28;20032;-88
2023/04/25 08:50:30;;;;;;;54.90;3.50;;;22.10;68.30;;;;;;5015865;28;20026;-87
2023/04/25 08:53:03;;;;;;;17.15;2.35;;;22.10;68.30;;;;;;5023367;28;20044;-84
2023/04/25 08:55:29;;;;;;;20.70;2.72;;;22.10;68.60;;;;;;5012864;28;20030;-78
2023/04/25 08:57:55;;;;;;;16.80;1.38;;;22.10;68.10;;;;;;5015291;28;20026;-80
2023/04/25 09:00:22;;;;;;;18.63;2.65;;;22.00;67.90;;;;;;5024243;28;20038;-79
2023/04/25 09:02:48;;;;;;;18.63;1.95;;;21.90;68.20;;;;;;5018939;28;20025;-79
2023/04/25 09:05:14;;;;;;;7.68;1.92;;;21.80;68.40;;;;;;5018312;28;20030;-79
2023/04/25 09:07:40;;;;;;;22.58;2.47;;;21.80;68.60;;;;;;5024223;28;20021;-79
2023/04/25 09:10:05;;;;;;;22.02;2.47;;;21.70;69.20;;;;;;5020101;28;20036;-77
2023/04/25 09:12:31;;;;;;;7.30;1.88;;;21.70;70.00;;;;;;5012350;28;20017;-77
2023/04/25 09:15:11;;;;;;;19.77;1.52;;;21.70;70.10;;;;;;5020627;28;20019;-77
2023/04/25 09:17:40;;;;;;;10.05;2.25;;;21.70;70.30;;;;;;5015114;28;20025;-77
2023/04/25 09:20:15;;;;;;;34.83;1.95;;;21.60;70.20;;;;;;5018685;28;20034;-77
2023/04/25 09:22:42;;;;;;;7.05;2.15;;;21.60;70.20;;;;;;5019096;28;20498;-77
2023/04/25 09:25:10;;;;;;;10.95;1.80;;;21.60;70.30;;;;;;5018548;28;20116;-77
2023/04/25 09:27:36;;;;;;;9.45;2.08;;;21.50;71.10;;;;;;5018685;28;20026;-77
2023/04/25 09:30:02;;;;;;;10.65;1.63;;;21.50;70.30;;;;;;5016595;28;20104;-77
2023/04/25 09:32:28;;;;;;;10.25;1.90;;;21.50;70.30;;;;;;5021925;28;20596;-76
2023/04/25 09:34:56;;;;;;;16.73;1.90;;;21.50;70.40;;;;;;5014992;28;20104;-76
2023/04/25 09:37:24;;;;;;;15.32;1.80;;;21.50;70.20;;;;;;5020149;28;20111;-77
2023/04/25 09:39:52;;;;;;;14.75;1.48;;;21.40;70.10;;;;;;5014627;28;20160;-76
2023/04/25 09:42:18;;;;;;;13.75;1.60;;;21.40;70.10;;;;;;5018449;28;20674;-76
2023/04/25 09:44:45;;;;;;;10.00;1.50;;;21.40;70.10;;;;;;5012435;28;20029;-76
2023/04/25 09:47:12;;;;;;;4.05;1.30;;;21.40;70.10;;;;;;5012108;28;20041;-77
2023/04/25 09:49:42;;;;;;;16.33;1.80;;;21.40;70.10;;;;;;5008621;28;20054;-76
2023/04/25 09:52:19;;;;;;;8.40;1.33;;;21.40;70.20;;;;;;5010026;28;20645;-76
2023/04/25 09:54:45;;;;;;;14.75;1.40;;;21.40;70.30;;;;;;5006058;28;20030;-76
2023/04/25 09:57:12;;;;;;;11.93;1.65;;;21.40;70.30;;;;;;5012624;28;20604;-76
2023/04/25 09:59:51;;;;;;;4.53;1.10;;;21.30;70.10;;;;;;5009381;28;20022;-76
2023/04/25 10:02:25;;;;;;;3.30;2.10;;;21.40;70.30;;;;;;5010776;28;20026;-76
2023/04/25 10:04:55;;;;;;;8.93;1.10;;;21.30;70.10;;;;;;5011163;28;20445;-76
2023/04/25 10:07:25;;;;;;;7.20;1.50;;;21.30;70.10;;;;;;5013844;28;20054;-76
2023/04/25 10:10:03;;;;;;;4.15;1.40;;;21.30;70.00;;;;;;5012368;28;20108;-77
2023/04/25 10:12:29;;;;;;;2.05;1.23;;;21.30;70.00;;;;;;5016794;28;20507;-76
2023/04/25 10:14:55;;;;;;;2.78;1.20;;;21.30;69.90;;;;;;5019168;28;20025;-76
2023/04/25 10:17:20;;;;;;;1.80;1.10;;;21.30;69.80;;;;;;5018108;28;20083;-76
2023/04/25 10:19:47;;;;;;;4.80;1.85;;;21.30;69.80;;;;;;5019493;28;20441;-76
2023/04/25 10:22:26;;;;;;;4.40;1.45;;;21.30;69.70;;;;;;5020763;28;20040;-75
2023/04/25 10:24:52;;;;;;;6.10;1.80;;;21.30;69.80;;;;;;5012637;28;20025;-76
2023/04/25 10:27:18;;;;;;;5.72;1.30;;;21.30;69.70;;;;;;5017441;28;20028;-76
2023/04/25 10:29:44;;;;;;;13.43;1.63;;;21.30;69.70;;;;;;5014533;28;20033;-76
2023/04/25 10:32:10;;;;;;;10.45;1.35;;;21.30;69.70;;;;;;5012337;28;20502;-77
2023/04/25 10:34:46;;;;;;;5.15;1.25;;;21.30;69.70;;;;;;5008618;28;20034;-77
2023/04/25 10:37:12;;;;;;;10.27;1.85;;;21.30;69.80;;;;;;5011841;28;20046;-77
2023/04/25 10:39:40;;;;;;;7.57;1.42;;;21.30;70.00;;;;;;5007029;28;20053;-78
2023/04/25 10:42:07;;;;;;;7.78;1.75;;;21.30;70.00;;;;;;5005313;28;20064;-78
2023/04/25 10:44:33;;;;;;;5.80;1.25;;;21.20;69.90;;;;;;5007069;28;20395;-78
2023/04/25 10:47:01;;;;;;;14.05;1.60;;;21.20;69.90;;;;;;5008911;28;20050;-77
2023/04/25 10:49:31;;;;;;;26.58;2.80;;;21.20;70.10;;;;;;5010326;28;20071;-78
2023/04/25 10:52:12;;;;;;;21.23;2.03;;;21.30;70.90;;;;;;5015291;28;20018;-77
2023/04/25 10:54:48;;;;;;;16.92;1.73;;;21.30;71.60;;;;;;5012317;28;20026;-78
2023/04/25 10:57:31;;;;;;;20.75;2.70;;;21.30;71.30;;;;;;5014310;28;20083;-77
2023/04/25 11:00:16;;;;;;;17.35;1.60;;;21.30;71.40;;;;;;5010608;28;20054;-77
2023/04/25 11:02:45;;;;;;;25.65;1.50;;;21.30;71.30;;;;;;5016367;28;20113;-77
2023/04/25 11:05:16;;;;;;;33.92;2.20;;;21.30;71.30;;;;;;5013821;28;20034;-76
2023/04/25 11:07:50;;;;;;;7.72;1.27;;;21.20;71.10;;;;;;5017854;28;20382;-77
2023/04/25 11:10:15;;;;;;;20.73;2.33;;;21.30;71.00;;;;;;5016033;28;20069;-77
2023/04/25 11:12:41;;;;;;;9.98;1.15;;;21.20;70.90;;;;;;5017505;28;20499;-77
2023/04/25 11:15:07;;;;;;;14.35;1.58;;;21.20;70.90;;;;;;5015878;28;20064;-77
2023/04/25 11:17:34;;;;;;;8.65;1.05;;;21.20;70.80;;;;;;5020085;28;20022;-77
2023/04/25 11:20:00;;;;;;;6.80;1.48;;;21.20;70.80;;;;;;5014587;28;20075;-77
2023/04/25 11:22:27;;;;;;;9.30;1.88;;;21.20;70.90;;;;;;5014391;28;20579;-78
2023/04/25 11:24:53;;;;;;;7.68;1.83;;;21.20;70.80;;;;;;5011233;28;20285;-78
2023/04/25 11:27:18;;;;;;;4.38;1.30;;;21.20;70.80;;;;;;5013511;28;20084;-77
2023/04/25 11:29:44;;;;;;;9.48;1.40;;;21.10;70.80;;;;;;5009423;28;20556;-77
2023/04/25 11:32:10;;;;;;;4.60;1.40;;;21.10;70.70;;;;;;5018322;28;20025;-78
2023/04/25 11:34:35;;;;;;;9.40;1.38;;;21.10;70.80;;;;;;5011273;28;20024;-78
2023/04/25 11:37:02;;;;;;;9.20;1.30;;;21.10;70.90;;;;;;5007530;28;20053;-78
2023/04/25 11:39:28;;;;;;;4.07;1.50;;;21.10;71.00;;;;;;5009508;28;20029;-79
2023/04/25 11:41:55;;;;;;;6.50;1.23;;;21.10;71.20;;;;;;5008299;28;20068;-79
2023/04/25 11:44:21;;;;;;;3.78;1.20;;;21.10;71.40;;;;;;5008392;28;20534;-78
2023/04/25 11:46:47;;;;;;;4.85;1.50;;;21.10;71.30;;;;;;5015814;28;20030;-79
2023/04/25 11:49:18;;;;;;;6.32;1.35;;;21.10;71.20;;;;;;5011535;28;20026;-78
2023/04/25 11:51:46;;;;;;;5.53;1.23;;;21.10;71.10;;;;;;5015850;28;20049;-78
2023/04/25 11:54:12;;;;;;;11.70;1.50;;;21.20;71.10;;;;;;5009775;28;20084;-79
2023/04/25 11:56:45;;;;;;;10.32;1.50;;;21.10;71.00;;;;;;5019711;28;20104;-79
2023/04/25 11:59:10;;;;;;;11.75;1.40;;;21.20;71.00;;;;;;5014882;28;20029;-78
2023/04/25 12:01:38;;;;;;;3.75;1.23;;;21.20;70.90;;;;;;5018043;28;20491;-79
2023/04/25 12:04:21;;;;;;;6.70;1.98;;;21.10;70.80;;;;;;5018952;28;20033;-78
2023/04/25 12:06:49;;;;;;;6.38;1.17;;;21.20;70.80;;;;;;5024991;28;20029;-79
2023/04/25 12:09:18;;;;;;;25.63;1.80;;;21.20;70.80;;;;;;5021861;28;20033;-78
2023/04/25 12:11:58;;;;;;;12.25;1.70;;;21.20;71.10;;;;;;5022098;28;20098;-79
2023/04/25 12:14:28;;;;;;;16.42;1.67;;;21.20;71.20;;;;;;5021763;28;20014;-79
2023/04/25 12:16:57;;;;;;;13.40;1.60;;;21.20;71.80;;;;;;5021901;28;20406;-78
2023/04/25 12:19:23;;;;;;;9.25;2.25;;;21.20;71.10;;;;;;5015830;28;20018;-78
2023/04/25 12:21:50;;;;;;;13.18;1.55;;;21.10;71.00;;;;;;5019116;28;20032;-78
2023/04/25 12:24:18;;;;;;;12.30;1.40;;;21.10;71.00;;;;;;5017346;28;20040;-78
2023/04/25 12:26:48;;;;;;;6.65;1.38;;;21.20;71.10;;;;;;5013415;28;20026;-78
2023/04/25 12:29:22;;;;;;;7.40;1.30;;;21.20;71.00;;;;;;5013389;28;20030;-78
2023/04/25 12:31:48;;;;;;;6.22;1.20;;;21.10;70.90;;;;;;5012235;28;20034;-78
2023/04/25 12:34:14;;;;;;;3.22;1.33;;;21.20;70.90;;;;;;5011624;28;20030;-78
2023/04/25 12:36:40;;;;;;;7.05;1.30;;;21.20;71.00;;;;;;5014672;28;20049;-78
2023/04/25 12:39:06;;;;;;;9.13;1.27;;;21.20;70.90;;;;;;5017289;28;20038;-78